createdAt,value
2019-04-01T00:03:17.492Z,99.90
2019-04-01T00:05:58.068Z,99.90
2019-04-01T00:08:39.033Z,99.90
2019-04-01T00:11:26.592Z,99.90
2019-04-01T00:14:08.267Z,99.90
2019-04-01T00:16:57.017Z,99.90
2019-04-01T00:19:44.333Z,99.90
2019-04-01T00:22:25.200Z,99.90
2019-04-01T00:25:12.777Z,99.90
2019-04-01T00:27:40.886Z,99.90
2019-04-01T00:33:42.426Z,99.90
2019-04-01T00:39:56.821Z,99.90
2019-04-01T00:42:46.700Z,99.90
2019-04-01T00:45:26.119Z,99.90
2019-04-01T00:48:13.919Z,99.90
2019-04-01T00:50:54.109Z,99.90
2019-04-01T00:53:41.961Z,99.90
2019-04-01T00:56:24.172Z,99.90
2019-04-01T00:59:11.791Z,99.90
2019-04-01T01:01:52.561Z,99.90
2019-04-01T01:04:40.141Z,99.90
2019-04-01T01:10:58.217Z,99.90
2019-04-01T01:13:46.527Z,99.90
2019-04-01T01:16:34.034Z,99.90
2019-04-01T01:19:16.085Z,99.90
2019-04-01T01:21:44.459Z,99.90
2019-04-01T01:28:02.476Z,99.90
2019-04-01T01:30:30.526Z,99.90
2019-04-01T01:32:58.786Z,99.90
2019-04-01T01:35:46.341Z,99.90
2019-04-01T01:38:26.610Z,99.90
2019-04-01T01:41:14.908Z,99.90
2019-04-01T01:43:55.986Z,99.90
2019-04-01T01:46:43.803Z,99.90
2019-04-01T01:49:24.693Z,99.90
2019-04-01T01:52:12.369Z,99.90
2019-04-01T01:58:18.156Z,99.90
2019-04-01T02:00:46.259Z,99.90
2019-04-01T02:03:16.299Z,99.90
2019-04-01T02:05:44.341Z,99.90
2019-04-01T02:08:12.455Z,99.90
2019-04-01T02:10:40.719Z,99.90
2019-04-01T02:13:08.782Z,99.90
2019-04-01T02:15:36.936Z,99.90
2019-04-01T02:18:05.015Z,99.90
2019-04-01T02:20:33.186Z,99.90
2019-04-01T02:23:01.422Z,99.90
2019-04-01T02:25:29.458Z,99.90
2019-04-01T02:27:57.680Z,99.90
2019-04-01T02:30:25.793Z,99.90
2019-04-01T02:32:53.950Z,99.90
2019-04-01T02:35:22.052Z,99.90
2019-04-01T02:37:50.273Z,99.90
2019-04-01T02:40:21.919Z,99.90
2019-04-01T02:42:48.361Z,99.90
2019-04-01T02:45:16.437Z,99.90
2019-04-01T02:47:44.542Z,99.90
2019-04-01T02:50:12.946Z,99.90
2019-04-01T02:52:41.014Z,99.90
2019-04-01T02:55:09.302Z,99.90
2019-04-01T02:57:37.406Z,99.90
2019-04-01T03:00:06.602Z,99.90
2019-04-01T03:02:34.898Z,99.90
2019-04-01T03:05:03.417Z,99.90
2019-04-01T03:07:31.780Z,99.90
2019-04-01T03:10:00.872Z,99.90
2019-04-01T03:12:29.039Z,99.90
2019-04-01T03:14:57.206Z,99.90
2019-04-01T03:17:25.466Z,99.90
2019-04-01T03:19:53.605Z,99.90
2019-04-01T03:22:21.706Z,99.90
2019-04-01T03:24:49.781Z,99.90
2019-04-01T03:27:17.911Z,99.90
2019-04-01T03:29:46.021Z,99.90
2019-04-01T03:32:14.133Z,99.90
2019-04-01T03:34:42.159Z,99.90
2019-04-01T03:37:10.398Z,99.90
2019-04-01T03:39:38.545Z,99.90
2019-04-01T03:42:06.600Z,99.90
2019-04-01T03:44:34.646Z,99.90
2019-04-01T03:47:02.757Z,99.90
2019-04-01T03:49:30.797Z,99.90
2019-04-01T03:51:58.832Z,99.90
2019-04-01T03:54:27.144Z,99.90
2019-04-01T03:56:55.328Z,99.90
2019-04-01T03:59:23.457Z,99.90
2019-04-01T04:01:51.566Z,99.90
2019-04-01T04:04:19.774Z,99.90
2019-04-01T04:06:47.874Z,99.90
2019-04-01T04:09:16.031Z,99.90
2019-04-01T04:11:44.107Z,99.90
2019-04-01T04:14:12.306Z,99.90
2019-04-01T04:16:40.494Z,99.90
2019-04-01T04:19:08.628Z,99.90
2019-04-01T04:21:36.844Z,99.90
2019-04-01T04:24:05.041Z,99.90
2019-04-01T04:26:33.174Z,99.90
2019-04-01T04:29:01.244Z,99.90
2019-04-01T04:31:29.379Z,99.90
2019-04-01T04:33:57.448Z,99.90
2019-04-01T04:36:25.689Z,99.90
2019-04-01T04:38:54.115Z,99.90
2019-04-01T04:41:23.023Z,99.90
2019-04-01T04:43:51.294Z,99.90
2019-04-01T04:46:21.371Z,99.90
2019-04-01T04:48:49.616Z,99.90
2019-04-01T04:51:17.745Z,99.90
2019-04-01T04:53:45.766Z,99.90
2019-04-01T04:56:13.823Z,99.90
2019-04-01T04:58:41.979Z,99.90
2019-04-01T05:01:10.159Z,99.90
2019-04-01T05:03:39.513Z,99.90
2019-04-01T05:06:07.546Z,99.90
2019-04-01T05:08:35.776Z,99.90
2019-04-01T05:11:03.915Z,99.90
2019-04-01T05:13:32.239Z,99.90
2019-04-01T05:16:00.306Z,99.90
2019-04-01T05:18:28.540Z,99.90
2019-04-01T05:20:58.712Z,99.90
2019-04-01T05:23:28.167Z,99.90
2019-04-01T05:25:56.789Z,99.90
2019-04-01T05:28:28.336Z,99.90
2019-04-01T05:30:59.192Z,99.90
2019-04-01T05:33:30.543Z,99.90
2019-04-01T05:35:59.732Z,99.90
2019-04-01T05:38:28.467Z,99.90
2019-04-01T05:40:56.732Z,99.90
2019-04-01T05:43:25.208Z,99.90
2019-04-01T05:45:53.438Z,99.90
2019-04-01T05:48:23.499Z,99.90
2019-04-01T05:50:51.696Z,99.90
2019-04-01T05:53:19.817Z,99.90
2019-04-01T05:55:48.819Z,99.90
2019-04-01T05:58:16.966Z,99.90
2019-04-01T06:00:49.584Z,99.90
2019-04-01T06:03:17.617Z,99.90
2019-04-01T06:05:45.774Z,99.90
2019-04-01T06:08:13.951Z,99.90
2019-04-01T06:10:42.198Z,99.90
2019-04-01T06:13:10.714Z,99.90
2019-04-01T06:15:38.853Z,99.90
2019-04-01T06:18:06.904Z,99.90
2019-04-01T06:20:35.043Z,99.90
2019-04-01T06:23:03.216Z,99.90
2019-04-01T06:25:31.371Z,99.90
2019-04-01T06:27:59.708Z,99.90
2019-04-01T06:30:27.913Z,99.90
2019-04-01T06:32:56.111Z,99.90
2019-04-01T06:35:24.572Z,99.90
2019-04-01T06:37:52.692Z,99.90
2019-04-01T06:40:21.157Z,99.90
2019-04-01T06:42:49.216Z,99.90
2019-04-01T06:45:17.300Z,99.90
2019-04-01T06:47:46.021Z,99.90
2019-04-01T06:50:14.398Z,99.90
2019-04-01T06:52:43.510Z,99.90
2019-04-01T06:55:12.885Z,99.90
2019-04-01T06:57:41.100Z,99.90
2019-04-01T07:00:09.541Z,99.90
2019-04-01T07:02:37.800Z,99.90
2019-04-01T07:05:06.174Z,99.90
2019-04-01T07:07:34.365Z,99.90
2019-04-01T07:10:03.144Z,99.90
2019-04-01T07:12:31.623Z,99.90
2019-04-01T07:15:00.356Z,99.90
2019-04-01T07:17:28.599Z,99.90
2019-04-01T07:19:56.767Z,99.90
2019-04-01T07:22:24.999Z,99.90
2019-04-01T07:24:55.069Z,99.90
2019-04-01T07:27:23.342Z,99.90
2019-04-01T07:29:51.539Z,99.90
2019-04-01T07:32:19.957Z,99.90
2019-04-01T07:34:49.846Z,99.90
2019-04-01T07:37:18.021Z,99.50
2019-04-01T07:39:46.092Z,98.30
2019-04-01T07:42:14.245Z,99.60
2019-04-01T07:44:43.789Z,96.90
2019-04-01T07:47:12.028Z,96.10
2019-04-01T07:49:40.068Z,94.60
2019-04-01T07:52:08.313Z,93.60
2019-04-01T07:54:36.514Z,93.70
2019-04-01T07:57:04.911Z,93.60
2019-04-01T07:59:32.986Z,91.90
2019-04-01T08:02:01.118Z,92.00
2019-04-01T08:04:29.181Z,91.00
2019-04-01T08:06:57.303Z,91.10
2019-04-01T08:09:25.440Z,90.50
2019-04-01T08:11:53.828Z,90.40
2019-04-01T08:14:21.922Z,89.50
2019-04-01T08:16:50.121Z,90.10
2019-04-01T08:19:18.193Z,89.60
2019-04-01T08:21:46.326Z,90.60
2019-04-01T08:24:14.579Z,90.50
2019-04-01T08:26:43.579Z,90.50
2019-04-01T08:29:11.745Z,90.60
2019-04-01T08:31:39.927Z,89.90
2019-04-01T08:34:08.247Z,90.10
2019-04-01T08:36:36.383Z,87.10
2019-04-01T08:39:12.436Z,84.50
2019-04-01T08:41:41.882Z,84.70
2019-04-01T08:44:09.993Z,86.60
2019-04-01T08:46:38.188Z,81.80
2019-04-01T08:49:07.912Z,81.70
2019-04-01T08:51:36.551Z,82.80
2019-04-01T08:54:05.022Z,84.00
2019-04-01T08:56:41.836Z,80.80
2019-04-01T08:59:10.052Z,80.90
2019-04-01T09:01:38.445Z,77.20
2019-04-01T09:04:06.598Z,79.60
2019-04-01T09:06:34.754Z,78.80
2019-04-01T09:09:05.658Z,80.40
2019-04-01T09:11:34.224Z,78.80
2019-04-01T09:14:03.155Z,81.10
2019-04-01T09:16:32.760Z,80.00
2019-04-01T09:19:00.946Z,79.60
2019-04-01T09:21:29.193Z,80.90
2019-04-01T09:23:57.278Z,81.90
2019-04-01T09:26:25.747Z,78.50
2019-04-01T09:28:54.043Z,76.60
2019-04-01T09:31:22.205Z,77.10
2019-04-01T09:33:50.417Z,78.30
2019-04-01T09:36:19.680Z,76.90
2019-04-01T09:38:47.886Z,75.50
2019-04-01T09:41:16.054Z,77.10
2019-04-01T09:43:44.241Z,75.50
2019-04-01T09:46:12.331Z,74.60
2019-04-01T09:48:40.345Z,75.30
2019-04-01T09:51:08.466Z,72.30
2019-04-01T09:53:36.604Z,73.90
2019-04-01T09:56:04.722Z,75.70
2019-04-01T09:58:32.901Z,71.70
2019-04-01T10:01:02.059Z,68.00
2019-04-01T10:03:30.392Z,66.30
2019-04-01T10:05:58.472Z,63.90
2019-04-01T10:08:41.126Z,65.40
2019-04-01T10:10:56.632Z,64.80
2019-04-01T10:13:24.759Z,67.00
2019-04-01T10:15:53.077Z,68.20
2019-04-01T10:18:21.259Z,69.80
2019-04-01T10:20:49.352Z,66.20
2019-04-01T10:23:17.420Z,65.20
2019-04-01T10:25:45.783Z,66.00
2019-04-01T10:28:13.859Z,65.40
2019-04-01T10:30:42.088Z,65.90
2019-04-01T10:33:10.689Z,68.80
2019-04-01T10:35:39.010Z,68.50
2019-04-01T10:38:08.170Z,65.50
2019-04-01T10:40:37.488Z,64.90
2019-04-01T10:43:05.906Z,62.90
2019-04-01T10:45:34.042Z,62.00
2019-04-01T10:48:02.477Z,62.70
2019-04-01T10:50:30.759Z,61.20
2019-04-01T10:52:59.158Z,61.90
2019-04-01T10:55:29.259Z,61.10
2019-04-01T10:57:57.626Z,59.20
2019-04-01T11:00:26.292Z,60.20
2019-04-01T11:02:54.645Z,61.10
2019-04-01T11:05:22.845Z,63.10
2019-04-01T11:07:51.116Z,62.50
2019-04-01T11:10:19.374Z,60.50
2019-04-01T11:12:50.877Z,57.70
2019-04-01T11:15:20.408Z,57.80
2019-04-01T11:17:52.110Z,60.20
2019-04-01T11:20:18.662Z,59.30
2019-04-01T11:22:46.798Z,59.70
2019-04-01T11:25:15.234Z,53.90
2019-04-01T11:27:43.439Z,56.10
2019-04-01T11:30:13.865Z,57.90
2019-04-01T11:32:42.131Z,59.20
2019-04-01T11:35:10.851Z,58.00
2019-04-01T11:37:39.151Z,57.20
2019-04-01T11:40:11.073Z,57.10
2019-04-01T11:42:40.380Z,55.50
2019-04-01T11:45:07.962Z,53.80
2019-04-01T11:47:36.462Z,54.90
2019-04-01T11:50:06.090Z,54.60
2019-04-01T11:52:34.387Z,53.90
2019-04-01T11:55:06.129Z,56.60
2019-04-01T11:57:32.680Z,54.00
2019-04-01T12:00:00.869Z,55.00
2019-04-01T12:02:28.957Z,53.30
2019-04-01T12:04:57.285Z,54.60
2019-04-01T12:07:25.332Z,54.10
2019-04-01T12:09:53.582Z,53.60
2019-04-01T12:12:23.860Z,54.70
2019-04-01T12:14:51.755Z,52.90
2019-04-01T12:17:19.926Z,51.30
2019-04-01T12:19:48.029Z,51.50
2019-04-01T12:22:19.684Z,53.00
2019-04-01T12:24:46.116Z,52.20
2019-04-01T12:27:14.318Z,53.30
2019-04-01T12:29:42.591Z,51.50
2019-04-01T12:32:10.833Z,51.20
2019-04-01T12:34:42.060Z,52.30
2019-04-01T12:37:08.849Z,50.70
2019-04-01T12:39:36.903Z,50.00
2019-04-01T12:42:05.196Z,51.70
2019-04-01T12:44:33.401Z,50.30
2019-04-01T12:47:01.511Z,49.50
2019-04-01T12:49:29.722Z,50.00
2019-04-01T12:51:58.453Z,48.70
2019-04-01T12:54:26.635Z,49.40
2019-04-01T12:56:54.683Z,48.80
2019-04-01T12:59:23.625Z,48.80
2019-04-01T13:01:52.606Z,48.70
2019-04-01T13:04:20.735Z,48.60
2019-04-01T13:06:48.997Z,46.40
2019-04-01T13:09:17.314Z,47.80
2019-04-01T13:11:45.460Z,48.50
2019-04-01T13:14:13.816Z,47.60
2019-04-01T13:16:42.168Z,47.60
2019-04-01T13:19:10.196Z,46.40
2019-04-01T13:21:39.920Z,46.10
2019-04-01T13:24:08.165Z,46.60
2019-04-01T13:26:36.225Z,47.00
2019-04-01T13:29:04.319Z,46.50
2019-04-01T13:31:32.476Z,46.80
2019-04-01T13:34:00.578Z,46.10
2019-04-01T13:36:28.721Z,45.90
2019-04-01T13:38:57.871Z,45.40
2019-04-01T13:41:26.087Z,45.50
2019-04-01T13:43:54.223Z,44.70
2019-04-01T13:46:22.291Z,46.50
2019-04-01T13:48:57.551Z,47.50
2019-04-01T13:51:20.670Z,45.00
2019-04-01T13:53:48.894Z,47.10
2019-04-01T13:56:16.949Z,45.80
2019-04-01T13:58:45.489Z,43.40
2019-04-01T14:01:13.744Z,44.30
2019-04-01T14:03:41.922Z,44.40
2019-04-01T14:06:10.043Z,48.30
2019-04-01T14:08:38.086Z,47.90
2019-04-01T14:11:06.324Z,48.70
2019-04-01T14:13:34.482Z,44.40
2019-04-01T14:16:02.674Z,44.20
2019-04-01T14:18:32.246Z,42.70
2019-04-01T14:21:14.914Z,42.50
2019-04-01T14:23:30.556Z,42.20
2019-04-01T14:25:58.707Z,42.30
2019-04-01T14:28:26.797Z,42.50
2019-04-01T14:30:55.098Z,43.00
2019-04-01T14:33:23.359Z,42.70
2019-04-01T14:35:51.582Z,43.10
2019-04-01T14:38:19.671Z,44.70
2019-04-01T14:40:48.312Z,43.80
2019-04-01T14:43:16.461Z,42.30
2019-04-01T14:45:44.889Z,41.40
2019-04-01T14:48:13.309Z,40.00
2019-04-01T14:50:41.676Z,42.90
2019-04-01T14:53:10.202Z,43.60
2019-04-01T14:55:39.087Z,43.80
2019-04-01T14:58:07.409Z,43.50
2019-04-01T15:00:35.681Z,43.90
2019-04-01T15:03:03.934Z,42.70
2019-04-01T15:05:32.876Z,43.20
2019-04-01T15:08:03.524Z,43.90
2019-04-01T15:10:31.735Z,43.80
2019-04-01T15:13:05.742Z,43.40
2019-04-01T15:15:31.168Z,43.90
2019-04-01T15:17:59.341Z,43.70
2019-04-01T15:20:27.514Z,42.90
2019-04-01T15:22:55.672Z,42.80
2019-04-01T15:25:23.881Z,44.40
2019-04-01T15:27:52.157Z,44.40
2019-04-01T15:30:20.270Z,43.10
2019-04-01T15:32:48.429Z,42.10
2019-04-01T15:35:16.617Z,41.80
2019-04-01T15:37:44.842Z,41.40
2019-04-01T15:40:13.205Z,41.10
2019-04-01T15:42:42.307Z,42.30
2019-04-01T15:45:11.931Z,41.70
2019-04-01T15:47:41.186Z,40.60
2019-04-01T15:50:10.185Z,40.50
2019-04-01T15:52:38.493Z,38.90
2019-04-01T15:55:07.217Z,39.40
2019-04-01T15:57:35.441Z,40.00
2019-04-01T16:00:04.346Z,41.00
2019-04-01T16:02:33.568Z,41.00
2019-04-01T16:05:01.665Z,39.50
2019-04-01T16:07:29.892Z,39.00
2019-04-01T16:09:57.948Z,38.80
2019-04-01T16:12:26.088Z,39.20
2019-04-01T16:14:55.237Z,39.20
2019-04-01T16:17:23.349Z,39.10
2019-04-01T16:19:51.678Z,39.50
2019-04-01T16:22:21.927Z,39.10
2019-04-01T16:24:50.251Z,39.70
2019-04-01T16:27:18.388Z,38.80
2019-04-01T16:29:46.458Z,38.10
2019-04-01T16:32:14.566Z,38.20
2019-04-01T16:34:42.780Z,38.20
2019-04-01T16:37:10.960Z,38.50
2019-04-01T16:39:39.201Z,37.80
2019-04-01T16:42:07.430Z,37.60
2019-04-01T16:44:35.490Z,36.90
2019-04-01T16:47:03.783Z,36.20
2019-04-01T16:49:31.954Z,36.80
2019-04-01T16:52:00.368Z,37.60
2019-04-01T16:54:28.733Z,37.50
2019-04-01T16:56:56.894Z,37.90
2019-04-01T16:59:25.043Z,38.20
2019-04-01T17:01:53.331Z,39.00
2019-04-01T17:04:21.449Z,38.30
2019-04-01T17:06:49.966Z,38.60
2019-04-01T17:09:18.150Z,38.50
2019-04-01T17:11:46.272Z,38.20
2019-04-01T17:14:14.353Z,39.20
2019-04-01T17:16:42.564Z,38.90
2019-04-01T17:19:10.841Z,38.40
2019-04-01T17:21:38.995Z,38.60
2019-04-01T17:24:07.653Z,38.10
2019-04-01T17:27:06.589Z,39.00
2019-04-01T17:29:35.056Z,38.80
2019-04-01T17:32:03.531Z,38.80
2019-04-01T17:34:31.756Z,38.40
2019-04-01T17:37:01.899Z,38.40
2019-04-01T17:39:31.122Z,38.40
2019-04-01T17:41:59.200Z,38.80
2019-04-01T17:44:27.329Z,38.80
2019-04-01T17:46:55.535Z,39.30
2019-04-01T17:49:23.970Z,39.00
2019-04-01T17:51:53.929Z,39.00
2019-04-01T17:54:22.161Z,39.20
2019-04-01T17:56:50.302Z,39.50
2019-04-01T17:59:18.539Z,39.30
2019-04-01T18:01:47.126Z,39.00
2019-04-01T18:04:15.504Z,40.30
2019-04-01T18:06:43.632Z,40.70
2019-04-01T18:09:11.718Z,41.00
2019-04-01T18:11:39.831Z,40.90
2019-04-01T18:14:08.118Z,40.80
2019-04-01T18:16:36.375Z,40.70
2019-04-01T18:19:04.632Z,40.90
2019-04-01T18:21:34.131Z,41.00
2019-04-01T18:24:02.421Z,41.00
2019-04-01T18:26:30.607Z,41.30
2019-04-01T18:28:58.858Z,41.70
2019-04-01T18:31:27.318Z,41.90
2019-04-01T18:33:56.628Z,42.30
2019-04-01T18:36:24.948Z,42.20
2019-04-01T18:38:53.172Z,42.50
2019-04-01T18:41:23.164Z,42.60
2019-04-01T18:43:51.315Z,43.10
2019-04-01T18:46:21.047Z,43.60
2019-04-01T18:48:49.486Z,43.40
2019-04-01T18:51:20.220Z,44.40
2019-04-01T18:53:47.576Z,44.40
2019-04-01T18:56:15.667Z,45.00
2019-04-01T18:58:43.969Z,44.40
2019-04-01T19:01:13.847Z,44.70
2019-04-01T19:03:43.054Z,45.10
2019-04-01T19:06:11.362Z,44.90
2019-04-01T19:08:39.641Z,45.00
2019-04-01T19:11:07.819Z,45.20
2019-04-01T19:13:36.042Z,45.60
2019-04-01T19:16:05.712Z,45.70
2019-04-01T19:18:34.142Z,45.90
2019-04-01T19:21:04.860Z,46.30
2019-04-01T19:23:32.194Z,46.20
2019-04-01T19:26:00.283Z,46.40
2019-04-01T19:28:28.572Z,46.50
2019-04-01T19:30:56.868Z,46.90
2019-04-01T19:33:25.273Z,46.60
2019-04-01T19:35:53.359Z,46.90
2019-04-01T19:38:21.771Z,47.30
2019-04-01T19:40:50.153Z,47.40
2019-04-01T19:43:18.311Z,47.40
2019-04-01T19:45:46.605Z,47.70
2019-04-01T19:48:14.953Z,47.70
2019-04-01T19:50:44.122Z,48.00
2019-04-01T19:53:12.263Z,48.10
2019-04-01T19:55:43.631Z,47.90
2019-04-01T19:58:10.429Z,48.10
2019-04-01T20:00:38.620Z,48.20
2019-04-01T20:03:06.847Z,48.00
2019-04-01T20:05:35.117Z,48.20
2019-04-01T20:08:03.483Z,48.40
2019-04-01T20:10:31.614Z,48.80
2019-04-01T20:12:59.897Z,48.90
2019-04-01T20:15:28.984Z,49.20
2019-04-01T20:17:57.089Z,48.80
2019-04-01T20:20:25.311Z,49.40
2019-04-01T20:22:54.439Z,49.50
2019-04-01T20:25:22.627Z,49.40
2019-04-01T20:27:51.990Z,49.70
2019-04-01T20:30:22.195Z,49.70
2019-04-01T20:32:50.340Z,49.70
2019-04-01T20:35:23.681Z,49.70
2019-04-01T20:37:48.531Z,50.30
2019-04-01T20:40:17.234Z,50.20
2019-04-01T20:42:46.436Z,49.90
2019-04-01T20:45:15.814Z,50.20
2019-04-01T20:47:44.103Z,50.50
2019-04-01T20:50:12.866Z,50.40
2019-04-01T20:52:41.037Z,50.50
2019-04-01T20:55:09.673Z,51.10
2019-04-01T20:57:37.907Z,50.70
2019-04-01T21:00:06.730Z,51.30
2019-04-01T21:02:36.717Z,52.30
2019-04-01T21:05:09.514Z,51.90
2019-04-01T21:07:38.256Z,51.40
2019-04-01T21:10:07.354Z,51.80
2019-04-01T21:12:37.776Z,53.50
2019-04-01T21:15:08.179Z,51.80
2019-04-01T21:17:37.911Z,52.60
2019-04-01T21:20:07.649Z,52.20
2019-04-01T21:22:36.896Z,52.10
2019-04-01T21:25:06.488Z,51.90
2019-04-01T21:27:35.600Z,52.50
2019-04-01T21:30:06.275Z,53.80
2019-04-01T21:32:35.062Z,53.00
2019-04-01T21:35:04.399Z,54.40
2019-04-01T21:37:32.608Z,53.90
2019-04-01T21:40:00.813Z,54.40
2019-04-01T21:42:28.995Z,54.70
2019-04-01T21:44:58.122Z,54.60
2019-04-01T21:47:26.235Z,55.30
2019-04-01T21:49:54.409Z,55.20
2019-04-01T21:52:22.454Z,55.30
2019-04-01T21:54:50.654Z,55.10
2019-04-01T21:57:20.567Z,55.20
2019-04-01T21:59:48.873Z,55.10
2019-04-01T22:02:17.016Z,55.10
2019-04-01T22:04:45.191Z,54.80
2019-04-01T22:07:13.606Z,55.50
2019-04-01T22:09:42.511Z,56.30
2019-04-01T22:12:10.674Z,56.60
2019-04-01T22:14:39.733Z,55.80
2019-04-01T22:17:07.816Z,56.00
2019-04-01T22:19:36.082Z,55.80
2019-04-01T22:22:04.293Z,56.50
2019-04-01T22:24:33.077Z,55.40
2019-04-01T22:27:01.774Z,55.80
2019-04-01T22:29:29.855Z,56.70
2019-04-01T22:31:58.005Z,56.50
2019-04-01T22:34:26.253Z,56.20
2019-04-01T22:36:54.374Z,56.80
2019-04-01T22:39:27.336Z,56.70
2019-04-01T22:41:52.775Z,57.20
2019-04-01T22:44:23.202Z,56.60
2019-04-01T22:46:51.723Z,56.00
2019-04-01T22:49:19.960Z,58.10
2019-04-01T22:51:48.132Z,57.90
2019-04-01T22:54:16.285Z,56.60
2019-04-01T22:56:44.789Z,57.20
2019-04-01T22:59:12.984Z,56.80
2019-04-01T23:01:41.097Z,58.50
2019-04-01T23:04:09.451Z,59.00
2019-04-01T23:06:37.629Z,57.50
2019-04-01T23:09:06.956Z,58.20
2019-04-01T23:11:35.029Z,58.00
2019-04-01T23:14:03.386Z,57.90
2019-04-01T23:16:31.414Z,59.10
2019-04-01T23:18:59.513Z,57.90
2019-04-01T23:21:27.587Z,57.30
2019-04-01T23:23:56.088Z,58.60
2019-04-01T23:26:24.256Z,58.30
2019-04-01T23:28:53.707Z,57.50
2019-04-01T23:31:21.947Z,59.00
2019-04-01T23:33:50.047Z,58.40
2019-04-01T23:36:18.130Z,59.70
2019-04-01T23:38:46.152Z,59.80
2019-04-01T23:41:14.224Z,59.40
2019-04-01T23:43:42.313Z,59.20
2019-04-01T23:46:11.382Z,59.60
2019-04-01T23:48:39.630Z,58.50
2019-04-01T23:51:07.675Z,57.80
2019-04-01T23:53:35.671Z,58.60
2019-04-01T23:56:03.847Z,59.00
2019-04-01T23:58:31.906Z,58.80
